createdAt,value
2022-08-02T00:01:18.205Z,50.38
2022-08-02T00:03:44.697Z,50.46
2022-08-02T00:06:11.258Z,50.24
2022-08-02T00:08:37.717Z,50.68
2022-08-02T00:11:04.186Z,50.65
2022-08-02T00:13:30.703Z,50.67
2022-08-02T00:15:57.124Z,50.91
2022-08-02T00:18:23.630Z,50.80
2022-08-02T00:20:50.284Z,50.96
2022-08-02T00:23:17.011Z,50.83
2022-08-02T00:25:55.603Z,51.24
2022-08-02T00:28:27.565Z,51.06
2022-08-02T00:30:54.642Z,51.14
2022-08-02T00:34:26.723Z,51.22
2022-08-02T00:36:07.807Z,51.35
2022-08-02T00:38:34.389Z,51.58
2022-08-02T00:41:00.891Z,51.92
2022-08-02T00:43:27.367Z,51.88
2022-08-02T00:46:03.207Z,51.74
2022-08-02T00:48:30.652Z,51.78
2022-08-02T00:50:58.894Z,52.13
2022-08-02T00:53:25.375Z,52.01
2022-08-02T00:55:51.859Z,52.00
2022-08-02T00:58:19.091Z,52.12
2022-08-02T01:00:45.547Z,51.72
2022-08-02T01:03:11.964Z,51.97
2022-08-02T01:06:02.373Z,52.03
2022-08-02T01:08:29.193Z,52.17
2022-08-02T01:10:58.137Z,52.45
2022-08-02T01:13:25.856Z,52.49
2022-08-02T01:16:02.091Z,52.46
2022-08-02T01:18:35.830Z,52.19
2022-08-02T01:21:23.534Z,52.47
2022-08-02T01:24:19.886Z,52.30
2022-08-02T01:26:58.918Z,52.20
2022-08-02T01:29:31.418Z,52.58
2022-08-02T01:32:09.853Z,52.73
2022-08-02T01:35:05.550Z,52.78
2022-08-02T01:37:44.453Z,52.82
2022-08-02T01:40:14.199Z,52.80
2022-08-02T01:42:45.828Z,53.24
2022-08-02T01:45:14.899Z,53.57
2022-08-02T01:47:44.448Z,53.25
2022-08-02T01:50:14.091Z,53.26
2022-08-02T01:52:53.145Z,53.18
2022-08-02T01:55:23.906Z,53.48
2022-08-02T01:58:04.279Z,53.32
2022-08-02T02:00:35.744Z,53.67
2022-08-02T02:03:06.475Z,53.65
2022-08-02T02:05:35.957Z,53.88
2022-08-02T02:08:05.820Z,53.86
2022-08-02T02:10:34.950Z,54.15
2022-08-02T02:13:07.919Z,53.71
2022-08-02T02:15:35.500Z,54.19
2022-08-02T02:18:12.652Z,53.73
2022-08-02T02:20:41.248Z,54.16
2022-08-02T02:23:08.055Z,54.14
2022-08-02T02:25:36.400Z,54.07
2022-08-02T02:28:35.382Z,53.90
2022-08-02T02:31:12.153Z,54.06
2022-08-02T02:33:48.706Z,54.22
2022-08-02T02:36:17.729Z,54.26
2022-08-02T02:38:45.408Z,54.87
2022-08-02T02:41:13.886Z,54.83
2022-08-02T02:43:42.179Z,54.90
2022-08-02T02:46:10.754Z,55.12
2022-08-02T02:48:37.885Z,55.12
2022-08-02T02:51:06.222Z,55.17
2022-08-02T02:54:31.016Z,55.13
2022-08-02T02:56:23.902Z,55.45
2022-08-02T02:58:50.975Z,55.43
2022-08-02T03:01:55.068Z,55.49
2022-08-02T03:04:17.730Z,55.78
2022-08-02T03:06:44.391Z,55.69
2022-08-02T03:09:11.537Z,56.02
2022-08-02T03:11:39.107Z,56.21
2022-08-02T03:14:10.245Z,55.49
2022-08-02T03:16:44.765Z,55.88
2022-08-02T03:19:11.530Z,55.98
2022-08-02T03:21:38.166Z,56.39
2022-08-02T03:24:05.399Z,56.53
2022-08-02T03:26:31.949Z,56.48
2022-08-02T03:28:58.407Z,56.45
2022-08-02T03:31:24.816Z,56.42
2022-08-02T03:33:51.630Z,56.59
2022-08-02T03:36:21.502Z,56.65
2022-08-02T03:38:50.078Z,56.69
2022-08-02T03:41:18.162Z,56.46
2022-08-02T03:43:47.885Z,56.84
2022-08-02T03:46:21.549Z,56.56
2022-08-02T03:48:50.578Z,56.76
2022-08-02T03:51:17.784Z,57.41
2022-08-02T03:53:44.874Z,57.07
2022-08-02T03:56:11.830Z,57.17
2022-08-02T03:58:38.245Z,57.50
2022-08-02T04:01:04.820Z,57.71
2022-08-02T04:03:31.326Z,57.47
2022-08-02T04:06:00.946Z,57.41
2022-08-02T04:08:35.378Z,57.82
2022-08-02T04:11:21.349Z,57.46
2022-08-02T04:13:47.945Z,57.52
2022-08-02T04:16:21.164Z,57.14
2022-08-02T04:18:55.468Z,57.54
2022-08-02T04:21:25.970Z,57.74
2022-08-02T04:23:53.487Z,57.86
2022-08-02T04:26:26.733Z,58.22
2022-08-02T04:28:55.781Z,58.03
2022-08-02T04:31:22.814Z,58.28
2022-08-02T04:33:49.895Z,58.05
2022-08-02T04:36:31.660Z,58.14
2022-08-02T04:38:58.967Z,58.55
2022-08-02T04:41:37.498Z,58.19
2022-08-02T04:44:07.847Z,58.68
2022-08-02T04:46:36.442Z,58.41
2022-08-02T04:49:03.271Z,58.82
2022-08-02T04:51:38.153Z,58.74
2022-08-02T04:54:09.506Z,58.93
2022-08-02T04:56:37.705Z,58.96
2022-08-02T04:59:04.399Z,58.95
2022-08-02T05:01:30.992Z,59.42
2022-08-02T05:03:57.670Z,59.37
2022-08-02T05:06:24.517Z,59.61
2022-08-02T05:08:52.911Z,59.43
2022-08-02T05:11:20.806Z,59.55
2022-08-02T05:13:57.470Z,59.74
2022-08-02T05:16:31.176Z,59.58
2022-08-02T05:18:58.646Z,59.79
2022-08-02T05:21:25.063Z,59.85
2022-08-02T05:23:51.601Z,60.10
2022-08-02T05:26:18.149Z,60.19
2022-08-02T05:28:44.606Z,60.45
2022-08-02T05:31:13.128Z,60.58
2022-08-02T05:33:40.043Z,60.45
2022-08-02T05:36:07.047Z,60.67
2022-08-02T05:38:36.808Z,60.57
2022-08-02T05:41:03.703Z,60.68
2022-08-02T05:43:30.400Z,60.64
2022-08-02T05:45:56.982Z,60.73
2022-08-02T05:48:26.558Z,60.66
2022-08-02T05:51:03.895Z,60.49
2022-08-02T05:53:37.350Z,60.20
2022-08-02T05:56:32.495Z,59.95
2022-08-02T05:59:05.100Z,59.94
2022-08-02T06:01:40.733Z,59.91
2022-08-02T06:04:10.727Z,60.14
2022-08-02T06:06:38.118Z,60.27
2022-08-02T06:09:11.159Z,59.64
2022-08-02T06:12:01.961Z,59.88
2022-08-02T06:14:31.911Z,59.90
2022-08-02T06:16:58.767Z,59.92
2022-08-02T06:19:26.321Z,60.01
2022-08-02T06:22:41.685Z,59.96
2022-08-02T06:24:40.139Z,59.88
2022-08-02T06:27:06.971Z,60.04
2022-08-02T06:29:39.019Z,60.00
2022-08-02T06:32:07.256Z,59.96
2022-08-02T06:34:38.316Z,59.66
2022-08-02T06:37:16.518Z,59.29
2022-08-02T06:39:50.248Z,59.15
2022-08-02T06:42:27.455Z,59.26
2022-08-02T06:44:57.829Z,59.24
2022-08-02T06:47:25.261Z,58.94
2022-08-02T06:49:54.198Z,58.83
2022-08-02T06:52:30.934Z,58.41
2022-08-02T06:55:01.734Z,58.15
2022-08-02T06:57:29.150Z,58.27
2022-08-02T06:59:56.204Z,57.93
2022-08-02T07:02:23.049Z,57.83
2022-08-02T07:04:49.744Z,57.45
2022-08-02T07:07:16.236Z,57.31
2022-08-02T07:10:00.333Z,56.81
2022-08-02T07:12:29.609Z,56.20
2022-08-02T07:14:57.042Z,55.88
2022-08-02T07:17:23.449Z,55.78
2022-08-02T07:19:49.875Z,55.68
2022-08-02T07:22:18.708Z,54.82
2022-08-02T07:24:45.402Z,54.94
2022-08-02T07:27:12.696Z,54.66
2022-08-02T07:29:46.340Z,54.36
2022-08-02T07:32:22.442Z,53.83
2022-08-02T07:34:52.689Z,53.74
2022-08-02T07:37:52.830Z,53.29
2022-08-02T07:40:14.882Z,52.97
2022-08-02T07:42:47.263Z,53.24
2022-08-02T07:45:14.268Z,52.66
2022-08-02T07:47:42.175Z,52.77
2022-08-02T07:50:10.034Z,52.44
2022-08-02T07:52:36.611Z,52.24
2022-08-02T07:55:03.592Z,51.76
2022-08-02T07:57:30.999Z,51.62
2022-08-02T07:59:57.662Z,51.64
2022-08-02T08:02:25.124Z,51.05
2022-08-02T08:04:52.477Z,51.02
2022-08-02T08:07:20.261Z,50.76
2022-08-02T08:09:47.543Z,51.31
2022-08-02T08:12:16.247Z,50.82
2022-08-02T08:14:44.269Z,50.59
2022-08-02T08:17:11.122Z,49.96
2022-08-02T08:19:51.528Z,50.33
2022-08-02T08:22:22.024Z,49.55
2022-08-02T08:24:49.205Z,49.73
2022-08-02T08:27:16.706Z,48.96
2022-08-02T08:29:44.030Z,48.85
2022-08-02T08:32:16.008Z,48.88
2022-08-02T08:34:43.590Z,48.36
2022-08-02T08:37:10.276Z,47.84
2022-08-02T08:39:56.600Z,47.41
2022-08-02T08:42:26.587Z,46.92
2022-08-02T08:44:56.063Z,47.13
2022-08-02T08:47:24.134Z,47.27
2022-08-02T08:49:54.865Z,46.96
2022-08-02T08:52:23.861Z,45.87
2022-08-02T08:54:51.326Z,45.28
2022-08-02T08:57:20.290Z,45.45
2022-08-02T08:59:46.808Z,45.74
2022-08-02T09:02:16.558Z,45.05
2022-08-02T09:04:55.163Z,44.96
2022-08-02T09:07:22.251Z,46.35
2022-08-02T09:09:48.757Z,43.93
2022-08-02T09:12:16.209Z,44.05
2022-08-02T09:14:43.074Z,43.83
2022-08-02T09:17:12.644Z,43.63
2022-08-02T09:19:45.889Z,44.05
2022-08-02T09:22:15.541Z,43.71
2022-08-02T09:24:44.419Z,43.54
2022-08-02T09:27:13.434Z,43.26
2022-08-02T09:30:05.918Z,43.46
2022-08-02T09:32:29.661Z,42.07
2022-08-02T09:34:56.191Z,41.89
2022-08-02T09:37:30.589Z,41.73
2022-08-02T09:40:03.452Z,40.78
2022-08-02T09:42:30.732Z,41.27
2022-08-02T09:45:02.083Z,40.91
2022-08-02T09:47:31.074Z,40.54
2022-08-02T09:49:58.568Z,40.23
2022-08-02T09:52:37.343Z,40.48
2022-08-02T09:55:11.551Z,39.72
2022-08-02T09:57:38.622Z,39.07
2022-08-02T10:00:14.001Z,38.40
2022-08-02T10:03:21.617Z,39.40
2022-08-02T10:05:55.970Z,38.65
2022-08-02T10:08:29.282Z,38.21
2022-08-02T10:11:03.360Z,38.25
2022-08-02T10:13:32.403Z,38.26
2022-08-02T10:15:59.532Z,38.33
2022-08-02T10:18:38.792Z,38.25
2022-08-02T10:21:11.651Z,38.22
2022-08-02T10:23:40.590Z,38.50
2022-08-02T10:26:08.056Z,38.05
2022-08-02T10:28:34.757Z,38.06
2022-08-02T10:31:04.806Z,38.03
2022-08-02T10:33:35.965Z,37.84
2022-08-02T10:36:07.376Z,37.26
2022-08-02T10:38:35.502Z,37.68
2022-08-02T10:41:02.049Z,37.53
2022-08-02T10:43:31.301Z,37.37
2022-08-02T10:46:36.529Z,38.34
2022-08-02T10:49:39.271Z,37.41
2022-08-02T10:52:08.451Z,37.78
2022-08-02T10:54:42.265Z,37.85
2022-08-02T10:57:23.375Z,37.98
2022-08-02T10:59:52.495Z,37.35
2022-08-02T11:02:42.182Z,36.97
2022-08-02T11:05:12.043Z,36.97
2022-08-02T11:07:56.714Z,36.23
2022-08-02T11:10:26.127Z,36.68
2022-08-02T11:13:09.419Z,36.82
2022-08-02T11:16:09.301Z,36.87
2022-08-02T11:18:49.519Z,36.58
2022-08-02T11:21:33.811Z,36.56
2022-08-02T11:24:27.490Z,36.10
2022-08-02T11:26:54.646Z,35.75
2022-08-02T11:29:22.195Z,34.92
2022-08-02T11:31:49.270Z,34.77
2022-08-02T11:34:36.792Z,34.09
2022-08-02T11:37:03.657Z,34.31
2022-08-02T11:39:30.282Z,33.46
2022-08-02T11:41:58.942Z,33.76
2022-08-02T11:44:27.295Z,33.47
2022-08-02T11:46:58.769Z,33.66
2022-08-02T11:49:25.454Z,33.55
2022-08-02T11:52:11.349Z,34.50
2022-08-02T11:54:42.203Z,35.46
2022-08-02T11:57:18.756Z,34.26
2022-08-02T11:59:48.297Z,33.54
2022-08-02T12:02:15.934Z,33.34
2022-08-02T12:04:42.590Z,33.30
2022-08-02T12:07:10.710Z,33.90
2022-08-02T12:09:41.033Z,33.11
2022-08-02T12:12:07.903Z,33.01
2022-08-02T12:14:43.582Z,32.61
2022-08-02T12:17:28.775Z,34.91
2022-08-02T12:19:55.286Z,32.84
2022-08-02T12:22:27.239Z,32.88
2022-08-02T12:24:56.756Z,32.84
2022-08-02T12:27:34.113Z,32.67
2022-08-02T12:30:04.645Z,32.65
2022-08-02T12:32:31.260Z,32.72
2022-08-02T12:35:26.296Z,33.32
2022-08-02T12:37:53.782Z,33.01
2022-08-02T12:40:33.500Z,32.98
2022-08-02T12:43:05.741Z,32.44
2022-08-02T12:45:38.350Z,32.09
2022-08-02T12:48:08.740Z,32.04
2022-08-02T12:50:37.634Z,31.27
2022-08-02T12:53:15.924Z,32.01
2022-08-02T12:56:01.955Z,32.05
2022-08-02T12:58:30.779Z,31.90
2022-08-02T13:00:59.946Z,32.01
2022-08-02T13:04:12.149Z,31.72
2022-08-02T13:06:40.805Z,31.19
2022-08-02T13:09:01.595Z,31.56
2022-08-02T13:11:28.672Z,31.44
2022-08-02T13:13:55.171Z,31.38
2022-08-02T13:16:30.465Z,31.29
2022-08-02T13:18:57.971Z,31.60
2022-08-02T13:21:40.114Z,31.00
2022-08-02T13:24:32.969Z,31.34
2022-08-02T13:26:55.053Z,31.17
2022-08-02T13:29:21.699Z,31.69
2022-08-02T13:31:48.162Z,31.37
2022-08-02T13:34:16.712Z,31.10
2022-08-02T13:36:43.480Z,31.38
2022-08-02T13:39:11.860Z,31.35
2022-08-02T13:41:38.392Z,31.38
2022-08-02T13:44:10.374Z,31.32
2022-08-02T13:46:45.469Z,31.26
2022-08-02T13:49:18.396Z,30.83
2022-08-02T13:51:46.177Z,31.13
2022-08-02T13:54:12.614Z,31.10
2022-08-02T13:56:39.049Z,31.71
2022-08-02T13:59:54.426Z,31.61
2022-08-02T14:01:53.372Z,31.97
2022-08-02T14:04:19.944Z,31.58
2022-08-02T14:06:46.450Z,31.57
2022-08-02T14:09:16.925Z,31.44
2022-08-02T14:11:45.283Z,31.47
2022-08-02T14:14:15.994Z,30.97
2022-08-02T14:16:44.518Z,31.54
2022-08-02T14:19:15.572Z,31.62
2022-08-02T14:21:46.316Z,31.42
2022-08-02T14:24:14.180Z,31.01
2022-08-02T14:26:44.849Z,31.01
2022-08-02T14:29:13.028Z,30.62
2022-08-02T14:31:43.998Z,30.62
2022-08-02T14:34:12.815Z,30.34
2022-08-02T14:36:39.413Z,30.37
2022-08-02T14:39:06.143Z,30.60
2022-08-02T14:41:57.924Z,30.33
2022-08-02T14:44:20.573Z,30.36
2022-08-02T14:46:47.089Z,30.63
2022-08-02T14:49:14.796Z,30.25
2022-08-02T14:51:53.531Z,30.65
2022-08-02T14:54:20.057Z,30.39
2022-08-02T14:56:46.576Z,29.95
2022-08-02T14:59:15.318Z,29.97
2022-08-02T15:01:41.842Z,30.32
2022-08-02T15:04:08.457Z,30.49
2022-08-02T15:06:34.912Z,30.29
2022-08-02T15:09:01.468Z,29.81
2022-08-02T15:11:28.130Z,29.69
2022-08-02T15:13:55.028Z,29.79
2022-08-02T15:16:47.224Z,29.34
2022-08-02T15:19:13.130Z,29.66
2022-08-02T15:21:52.417Z,29.22
2022-08-02T15:24:21.342Z,29.03
2022-08-02T15:26:50.117Z,28.95
2022-08-02T15:29:17.645Z,29.11
2022-08-02T15:31:44.418Z,29.35
2022-08-02T15:34:10.996Z,29.12
2022-08-02T15:36:37.630Z,28.84
2022-08-02T15:39:04.831Z,28.70
2022-08-02T15:41:31.945Z,28.19
2022-08-02T15:44:00.630Z,28.42
2022-08-02T15:46:37.373Z,28.62
2022-08-02T15:49:03.921Z,28.60
2022-08-02T15:51:30.480Z,28.58
2022-08-02T15:53:56.963Z,28.76
2022-08-02T15:56:24.232Z,28.95
2022-08-02T15:58:55.471Z,28.42
2022-08-02T16:01:25.300Z,27.92
2022-08-02T16:03:58.542Z,27.66
2022-08-02T16:06:25.263Z,27.79
2022-08-02T16:08:53.719Z,28.39
2022-08-02T16:11:21.956Z,28.25
2022-08-02T16:13:53.990Z,27.79
2022-08-02T16:16:29.330Z,28.05
2022-08-02T16:18:57.422Z,27.97
2022-08-02T16:21:24.909Z,27.78
2022-08-02T16:23:58.886Z,28.12
2022-08-02T16:26:32.466Z,28.57
2022-08-02T16:29:00.311Z,27.67
2022-08-02T16:31:27.007Z,27.76
2022-08-02T16:33:56.566Z,27.75
2022-08-02T16:36:25.832Z,27.53
2022-08-02T16:38:53.149Z,27.77
2022-08-02T16:41:20.119Z,27.50
2022-08-02T16:43:46.744Z,27.25
2022-08-02T16:46:13.625Z,26.36
2022-08-02T16:48:40.289Z,26.72
2022-08-02T16:51:13.875Z,26.80
2022-08-02T16:54:00.700Z,25.87
2022-08-02T16:56:28.532Z,26.30
2022-08-02T16:58:59.579Z,26.50
2022-08-02T17:04:16.276Z,25.78
2022-08-02T17:06:47.719Z,25.98
2022-08-02T17:10:01.918Z,25.93
2022-08-02T17:12:06.766Z,25.42
2022-08-02T17:17:34.165Z,25.19
2022-08-02T17:20:01.078Z,25.18
2022-08-02T17:22:27.594Z,25.22
2022-08-02T17:24:54.025Z,24.72
2022-08-02T17:27:20.654Z,24.57
2022-08-02T17:29:47.184Z,24.54
2022-08-02T17:32:15.516Z,24.42
2022-08-02T17:34:56.679Z,24.54
2022-08-02T17:37:28.728Z,24.35
2022-08-02T17:39:55.537Z,24.14
2022-08-02T17:42:23.068Z,24.21
2022-08-02T17:44:54.144Z,24.08
2022-08-02T17:47:21.552Z,24.74
2022-08-02T17:49:48.949Z,24.50
2022-08-02T17:52:52.093Z,24.01
2022-08-02T17:55:04.460Z,24.09
2022-08-02T17:57:55.968Z,24.25
2022-08-02T18:00:18.034Z,23.69
2022-08-02T18:02:52.531Z,24.14
2022-08-02T18:05:22.063Z,23.88
2022-08-02T18:07:51.951Z,23.70
2022-08-02T18:10:22.130Z,23.73
2022-08-02T18:12:49.796Z,23.94
2022-08-02T18:15:16.387Z,23.25
2022-08-02T18:17:46.579Z,23.29
2022-08-02T18:20:13.191Z,23.16
2022-08-02T18:22:43.000Z,23.07
2022-08-02T18:25:09.920Z,23.14
2022-08-02T18:30:28.244Z,22.98
2022-08-02T18:33:57.762Z,22.86
2022-08-02T18:35:43.607Z,22.86
2022-08-02T18:38:11.792Z,22.98
2022-08-02T18:40:38.594Z,22.81
2022-08-02T18:43:07.699Z,22.69
2022-08-02T18:46:05.719Z,22.75
2022-08-02T18:48:21.103Z,23.42
2022-08-02T18:50:48.525Z,23.26
2022-08-02T18:53:39.247Z,23.57
2022-08-02T18:56:05.315Z,23.41
2022-08-02T18:58:32.819Z,24.14
2022-08-02T19:00:59.694Z,23.91
2022-08-02T19:03:37.251Z,24.23
2022-08-02T19:06:04.183Z,24.21
2022-08-02T19:08:34.884Z,24.70
2022-08-02T19:11:02.530Z,24.79
2022-08-02T19:13:29.809Z,25.50
2022-08-02T19:15:56.611Z,25.43
2022-08-02T19:18:26.844Z,25.60
2022-08-02T19:21:02.931Z,25.42
2022-08-02T19:23:32.760Z,25.70
2022-08-02T19:26:00.002Z,25.96
2022-08-02T19:28:27.396Z,26.21
2022-08-02T19:30:57.836Z,26.58
2022-08-02T19:34:04.515Z,26.72
2022-08-02T19:36:11.807Z,27.79
2022-08-02T19:38:43.816Z,28.51
2022-08-02T19:41:13.195Z,28.95
2022-08-02T19:44:25.536Z,28.88
2022-08-02T19:46:26.387Z,28.88
2022-08-02T19:48:52.887Z,29.53
2022-08-02T19:51:55.060Z,29.72
2022-08-02T19:54:10.893Z,29.77
2022-08-02T19:56:40.107Z,30.73
2022-08-02T19:59:13.064Z,30.59
2022-08-02T20:01:43.500Z,30.10
2022-08-02T20:07:00.311Z,30.77
2022-08-02T20:09:33.533Z,30.67
2022-08-02T20:12:14.245Z,31.05
2022-08-02T20:14:40.950Z,31.23
2022-08-02T20:17:20.653Z,32.02
2022-08-02T20:19:47.511Z,32.43
2022-08-02T20:22:16.065Z,32.43
2022-08-02T20:24:44.068Z,32.59
2022-08-02T20:27:16.749Z,33.07
2022-08-02T20:29:50.394Z,32.99
2022-08-02T20:32:22.416Z,33.44
2022-08-02T20:34:49.983Z,33.62
2022-08-02T20:37:59.650Z,33.96
2022-08-02T20:40:05.297Z,33.79
2022-08-02T20:42:31.844Z,33.95
2022-08-02T20:44:59.534Z,33.84
2022-08-02T20:47:28.441Z,33.82
2022-08-02T20:50:31.461Z,34.03
2022-08-02T20:53:00.151Z,34.53
2022-08-02T20:55:27.726Z,34.40
2022-08-02T20:58:01.053Z,34.11
2022-08-02T21:00:28.990Z,34.97
2022-08-02T21:02:55.500Z,35.21
2022-08-02T21:05:26.890Z,35.42
2022-08-02T21:08:13.798Z,35.45
2022-08-02T21:10:43.706Z,36.20
2022-08-02T21:13:22.237Z,36.04
2022-08-02T21:15:51.315Z,36.10
2022-08-02T21:18:25.398Z,36.39
2022-08-02T21:21:04.439Z,36.50
2022-08-02T21:23:36.573Z,36.76
2022-08-02T21:26:04.075Z,37.09
2022-08-02T21:28:43.798Z,37.19
2022-08-02T21:31:15.765Z,37.20
2022-08-02T21:33:56.922Z,37.88
2022-08-02T21:36:31.446Z,37.21
2022-08-02T21:39:05.823Z,37.51
2022-08-02T21:41:39.642Z,38.00
2022-08-02T21:44:13.712Z,37.77
2022-08-02T21:46:44.589Z,38.27
2022-08-02T21:49:12.539Z,38.23
2022-08-02T21:51:39.894Z,38.39
2022-08-02T21:54:17.876Z,38.99
2022-08-02T21:56:52.161Z,38.48
2022-08-02T21:59:25.611Z,39.01
2022-08-02T22:01:56.492Z,39.28
2022-08-02T22:04:24.476Z,39.42
2022-08-02T22:06:50.979Z,39.53
2022-08-02T22:09:44.046Z,39.53
2022-08-02T22:12:10.186Z,39.79
2022-08-02T22:14:39.866Z,39.64
2022-08-02T22:17:09.099Z,40.10
2022-08-02T22:19:40.282Z,40.18
2022-08-02T22:22:20.754Z,40.44
2022-08-02T22:24:55.173Z,40.37
2022-08-02T22:27:23.143Z,40.24
2022-08-02T22:29:49.578Z,40.35
2022-08-02T22:32:36.035Z,41.03
2022-08-02T22:38:17.122Z,40.97
2022-08-02T22:40:38.383Z,41.20
2022-08-02T22:43:05.859Z,41.27
2022-08-02T22:45:37.489Z,41.26
2022-08-02T22:48:04.677Z,41.66
2022-08-02T22:50:31.215Z,41.57
2022-08-02T22:52:57.952Z,41.95
2022-08-02T22:55:24.618Z,42.10
2022-08-02T22:57:58.926Z,42.06
2022-08-02T22:58:37.495Z,25.79
2022-08-02T22:58:44.225Z,23.01
2022-08-02T22:58:49.481Z,26.16
2022-08-02T22:58:54.319Z,30.09
2022-08-02T23:00:26.198Z,42.20
2022-08-02T23:02:52.910Z,41.88
2022-08-02T23:05:20.780Z,42.32
2022-08-02T23:07:48.540Z,42.21
2022-08-02T23:10:15.360Z,42.52
2022-08-02T23:12:41.794Z,42.70
2022-08-02T23:15:09.122Z,42.69
2022-08-02T23:17:54.141Z,42.51
2022-08-02T23:20:20.686Z,42.47
2022-08-02T23:22:47.212Z,42.34
2022-08-02T23:25:14.496Z,42.99
2022-08-02T23:27:50.502Z,43.04
2022-08-02T23:30:18.693Z,42.72
2022-08-02T23:32:46.723Z,42.71
2022-08-02T23:35:16.609Z,42.86
2022-08-02T23:37:59.322Z,42.89
2022-08-02T23:40:40.632Z,43.19
2022-08-02T23:43:14.212Z,42.95
2022-08-02T23:45:43.677Z,43.00
2022-08-02T23:48:10.139Z,43.45
2022-08-02T23:50:36.766Z,43.36
2022-08-02T23:53:03.367Z,43.91
2022-08-02T23:55:29.780Z,43.86
2022-08-02T23:57:56.219Z,43.77
